sensor_id;sensor_type;location;lat;lon;timestamp;P1;P2;P0
60816;PMS5003;51921;51.518;-3.188;2023-02-19T00:01:26;4;4;
60816;PMS5003;51921;51.518;-3.188;2023-02-19T00:03:52;5;3;
60816;PMS5003;51921;51.518;-3.188;2023-02-19T00:06:17;6;5;
60816;PMS5003;51921;51.518;-3.188;2023-02-19T00:08:42;7;6;
60816;PMS5003;51921;51.518;-3.188;2023-02-19T00:11:08;5;4;
60816;PMS5003;51921;51.518;-3.188;2023-02-19T00:13:34;3;3;
60816;PMS5003;51921;51.518;-3.188;2023-02-19T00:15:58;3;3;
60816;PMS5003;51921;51.518;-3.188;2023-02-19T00:18:24;6;5;
60816;PMS5003;51921;51.518;-3.188;2023-02-19T00:20:49;5;5;
60816;PMS5003;51921;51.518;-3.188;2023-02-19T00:23:14;5;5;
60816;PMS5003;51921;51.518;-3.188;2023-02-19T00:25:40;5;4;
60816;PMS5003;51921;51.518;-3.188;2023-02-19T00:28:05;6;5;
60816;PMS5003;51921;51.518;-3.188;2023-02-19T00:30:31;3;3;
60816;PMS5003;51921;51.518;-3.188;2023-02-19T00:35:22;5;5;
60816;PMS5003;51921;51.518;-3.188;2023-02-19T00:37:47;7;4;
60816;PMS5003;51921;51.518;-3.188;2023-02-19T00:40:13;4;3;
60816;PMS5003;51921;51.518;-3.188;2023-02-19T00:42:38;4;3;
60816;PMS5003;51921;51.518;-3.188;2023-02-19T00:45:04;2;2;
60816;PMS5003;51921;51.518;-3.188;2023-02-19T00:47:29;8;6;
60816;PMS5003;51921;51.518;-3.188;2023-02-19T00:49:55;5;5;
60816;PMS5003;51921;51.518;-3.188;2023-02-19T00:52:20;4;2;
60816;PMS5003;51921;51.518;-3.188;2023-02-19T00:54:46;4;4;
60816;PMS5003;51921;51.518;-3.188;2023-02-19T00:57:11;3;3;
60816;PMS5003;51921;51.518;-3.188;2023-02-19T00:59:37;7;6;
60816;PMS5003;51921;51.518;-3.188;2023-02-19T01:02:02;6;5;
60816;PMS5003;51921;51.518;-3.188;2023-02-19T01:04:28;4;3;
60816;PMS5003;51921;51.518;-3.188;2023-02-19T01:06:53;5;5;
60816;PMS5003;51921;51.518;-3.188;2023-02-19T01:09:18;3;3;
60816;PMS5003;51921;51.518;-3.188;2023-02-19T01:11:44;5;5;
60816;PMS5003;51921;51.518;-3.188;2023-02-19T01:14:09;4;3;
60816;PMS5003;51921;51.518;-3.188;2023-02-19T01:16:35;3;3;
60816;PMS5003;51921;51.518;-3.188;2023-02-19T01:19:00;3;3;
60816;PMS5003;51921;51.518;-3.188;2023-02-19T01:21:26;3;2;
60816;PMS5003;51921;51.518;-3.188;2023-02-19T01:23:51;3;3;
60816;PMS5003;51921;51.518;-3.188;2023-02-19T01:26:17;8;7;
60816;PMS5003;51921;51.518;-3.188;2023-02-19T01:28:42;5;4;
60816;PMS5003;51921;51.518;-3.188;2023-02-19T01:31:09;5;4;
60816;PMS5003;51921;51.518;-3.188;2023-02-19T01:33:33;4;3;
60816;PMS5003;51921;51.518;-3.188;2023-02-19T01:35:59;6;6;
60816;PMS5003;51921;51.518;-3.188;2023-02-19T01:38:24;7;7;
60816;PMS5003;51921;51.518;-3.188;2023-02-19T01:40:54;7;6;
60816;PMS5003;51921;51.518;-3.188;2023-02-19T01:43:15;8;8;
60816;PMS5003;51921;51.518;-3.188;2023-02-19T01:45:41;8;7;
60816;PMS5003;51921;51.518;-3.188;2023-02-19T01:48:08;8;7;
60816;PMS5003;51921;51.518;-3.188;2023-02-19T01:50:33;8;6;
60816;PMS5003;51921;51.518;-3.188;2023-02-19T01:52:58;7;7;
60816;PMS5003;51921;51.518;-3.188;2023-02-19T01:55:23;8;7;
60816;PMS5003;51921;51.518;-3.188;2023-02-19T01:57:49;9;8;
60816;PMS5003;51921;51.518;-3.188;2023-02-19T02:00:14;9;6;
60816;PMS5003;51921;51.518;-3.188;2023-02-19T02:02:40;10;8;
60816;PMS5003;51921;51.518;-3.188;2023-02-19T02:05:05;6;5;
60816;PMS5003;51921;51.518;-3.188;2023-02-19T02:07:30;8;7;
60816;PMS5003;51921;51.518;-3.188;2023-02-19T02:09:55;8;6;
60816;PMS5003;51921;51.518;-3.188;2023-02-19T02:12:21;9;8;
60816;PMS5003;51921;51.518;-3.188;2023-02-19T02:14:46;7;6;
60816;PMS5003;51921;51.518;-3.188;2023-02-19T02:17:14;5;5;
60816;PMS5003;51921;51.518;-3.188;2023-02-19T02:19:44;6;6;
60816;PMS5003;51921;51.518;-3.188;2023-02-19T02:22:05;7;6;
60816;PMS5003;51921;51.518;-3.188;2023-02-19T02:26:57;7;6;
60816;PMS5003;51921;51.518;-3.188;2023-02-19T02:29:25;6;5;
60816;PMS5003;51921;51.518;-3.188;2023-02-19T02:31:46;6;5;
60816;PMS5003;51921;51.518;-3.188;2023-02-19T02:34:12;7;6;
60816;PMS5003;51921;51.518;-3.188;2023-02-19T02:36:37;6;5;
60816;PMS5003;51921;51.518;-3.188;2023-02-19T02:39:02;9;8;
60816;PMS5003;51921;51.518;-3.188;2023-02-19T02:41:28;9;8;
60816;PMS5003;51921;51.518;-3.188;2023-02-19T02:43:53;6;5;
60816;PMS5003;51921;51.518;-3.188;2023-02-19T02:46:20;6;6;
60816;PMS5003;51921;51.518;-3.188;2023-02-19T02:48:44;8;6;
60816;PMS5003;51921;51.518;-3.188;2023-02-19T02:51:12;5;4;
60816;PMS5003;51921;51.518;-3.188;2023-02-19T02:53:36;5;5;
60816;PMS5003;51921;51.518;-3.188;2023-02-19T02:56:00;8;5;
60816;PMS5003;51921;51.518;-3.188;2023-02-19T02:58:26;5;5;
60816;PMS5003;51921;51.518;-3.188;2023-02-19T03:00:53;8;7;
60816;PMS5003;51921;51.518;-3.188;2023-02-19T03:03:17;8;8;
60816;PMS5003;51921;51.518;-3.188;2023-02-19T03:05:42;13;10;
60816;PMS5003;51921;51.518;-3.188;2023-02-19T03:08:08;10;7;
60816;PMS5003;51921;51.518;-3.188;2023-02-19T03:10:34;8;7;
60816;PMS5003;51921;51.518;-3.188;2023-02-19T03:12:59;8;8;
60816;PMS5003;51921;51.518;-3.188;2023-02-19T03:15:25;8;7;
60816;PMS5003;51921;51.518;-3.188;2023-02-19T03:17:51;9;7;
60816;PMS5003;51921;51.518;-3.188;2023-02-19T03:20:16;7;7;
60816;PMS5003;51921;51.518;-3.188;2023-02-19T03:22:41;5;5;
60816;PMS5003;51921;51.518;-3.188;2023-02-19T03:25:08;8;7;
60816;PMS5003;51921;51.518;-3.188;2023-02-19T03:27:32;8;6;
60816;PMS5003;51921;51.518;-3.188;2023-02-19T03:29:58;10;10;
60816;PMS5003;51921;51.518;-3.188;2023-02-19T03:32:24;7;6;
60816;PMS5003;51921;51.518;-3.188;2023-02-19T03:34:50;9;7;
60816;PMS5003;51921;51.518;-3.188;2023-02-19T03:37:16;10;8;
60816;PMS5003;51921;51.518;-3.188;2023-02-19T03:39:39;6;5;
60816;PMS5003;51921;51.518;-3.188;2023-02-19T03:42:07;9;6;
60816;PMS5003;51921;51.518;-3.188;2023-02-19T03:44:33;9;7;
60816;PMS5003;51921;51.518;-3.188;2023-02-19T03:46:58;8;6;
60816;PMS5003;51921;51.518;-3.188;2023-02-19T03:49:23;6;5;
60816;PMS5003;51921;51.518;-3.188;2023-02-19T03:51:48;5;4;
60816;PMS5003;51921;51.518;-3.188;2023-02-19T03:54:14;8;7;
60816;PMS5003;51921;51.518;-3.188;2023-02-19T03:56:41;5;4;
60816;PMS5003;51921;51.518;-3.188;2023-02-19T03:59:07;9;7;
60816;PMS5003;51921;51.518;-3.188;2023-02-19T04:01:29;6;5;
60816;PMS5003;51921;51.518;-3.188;2023-02-19T04:03:55;9;8;
60816;PMS5003;51921;51.518;-3.188;2023-02-19T04:06:21;8;8;
60816;PMS5003;51921;51.518;-3.188;2023-02-19T04:08:46;8;6;
60816;PMS5003;51921;51.518;-3.188;2023-02-19T04:11:10;5;3;
60816;PMS5003;51921;51.518;-3.188;2023-02-19T04:13:37;6;5;
60816;PMS5003;51921;51.518;-3.188;2023-02-19T04:16:02;6;5;
60816;PMS5003;51921;51.518;-3.188;2023-02-19T04:18:28;11;8;
60816;PMS5003;51921;51.518;-3.188;2023-02-19T04:20:52;8;8;
60816;PMS5003;51921;51.518;-3.188;2023-02-19T04:23:18;10;8;
60816;PMS5003;51921;51.518;-3.188;2023-02-19T04:25:44;8;5;
60816;PMS5003;51921;51.518;-3.188;2023-02-19T04:28:08;9;7;
60816;PMS5003;51921;51.518;-3.188;2023-02-19T04:30:34;9;7;
60816;PMS5003;51921;51.518;-3.188;2023-02-19T04:33:00;13;12;
60816;PMS5003;51921;51.518;-3.188;2023-02-19T04:35:25;10;9;
60816;PMS5003;51921;51.518;-3.188;2023-02-19T04:37:50;10;9;
60816;PMS5003;51921;51.518;-3.188;2023-02-19T04:40:16;10;10;
60816;PMS5003;51921;51.518;-3.188;2023-02-19T04:42:41;12;9;
60816;PMS5003;51921;51.518;-3.188;2023-02-19T04:45:07;13;12;
60816;PMS5003;51921;51.518;-3.188;2023-02-19T04:47:32;12;8;
60816;PMS5003;51921;51.518;-3.188;2023-02-19T04:49:58;7;6;
60816;PMS5003;51921;51.518;-3.188;2023-02-19T04:52:24;9;7;
60816;PMS5003;51921;51.518;-3.188;2023-02-19T04:54:49;15;12;
60816;PMS5003;51921;51.518;-3.188;2023-02-19T04:57:14;10;10;
60816;PMS5003;51921;51.518;-3.188;2023-02-19T04:59:40;9;9;
60816;PMS5003;51921;51.518;-3.188;2023-02-19T05:02:05;11;9;
60816;PMS5003;51921;51.518;-3.188;2023-02-19T05:04:31;12;11;
60816;PMS5003;51921;51.518;-3.188;2023-02-19T05:06:57;10;9;
60816;PMS5003;51921;51.518;-3.188;2023-02-19T05:09:22;9;8;
60816;PMS5003;51921;51.518;-3.188;2023-02-19T05:11:47;18;13;
60816;PMS5003;51921;51.518;-3.188;2023-02-19T05:14:13;8;8;
60816;PMS5003;51921;51.518;-3.188;2023-02-19T05:16:39;8;7;
60816;PMS5003;51921;51.518;-3.188;2023-02-19T05:19:04;12;11;
60816;PMS5003;51921;51.518;-3.188;2023-02-19T05:21:30;12;10;
60816;PMS5003;51921;51.518;-3.188;2023-02-19T05:23:55;10;8;
60816;PMS5003;51921;51.518;-3.188;2023-02-19T05:26:21;10;8;
60816;PMS5003;51921;51.518;-3.188;2023-02-19T05:28:46;9;6;
60816;PMS5003;51921;51.518;-3.188;2023-02-19T05:31:11;8;7;
60816;PMS5003;51921;51.518;-3.188;2023-02-19T05:33:37;11;8;
60816;PMS5003;51921;51.518;-3.188;2023-02-19T05:36:04;9;8;
60816;PMS5003;51921;51.518;-3.188;2023-02-19T05:38:27;8;7;
60816;PMS5003;51921;51.518;-3.188;2023-02-19T05:40:53;7;7;
60816;PMS5003;51921;51.518;-3.188;2023-02-19T05:43:19;8;8;
60816;PMS5003;51921;51.518;-3.188;2023-02-19T05:45:44;12;10;
60816;PMS5003;51921;51.518;-3.188;2023-02-19T05:48:10;9;9;
60816;PMS5003;51921;51.518;-3.188;2023-02-19T05:50:35;8;8;
60816;PMS5003;51921;51.518;-3.188;2023-02-19T05:53:01;9;8;
60816;PMS5003;51921;51.518;-3.188;2023-02-19T05:55:26;12;10;
60816;PMS5003;51921;51.518;-3.188;2023-02-19T05:57:51;9;7;
60816;PMS5003;51921;51.518;-3.188;2023-02-19T06:00:17;10;10;
60816;PMS5003;51921;51.518;-3.188;2023-02-19T06:02:42;7;7;
60816;PMS5003;51921;51.518;-3.188;2023-02-19T06:05:07;8;8;
60816;PMS5003;51921;51.518;-3.188;2023-02-19T06:07:33;14;11;
60816;PMS5003;51921;51.518;-3.188;2023-02-19T06:09:58;10;7;
60816;PMS5003;51921;51.518;-3.188;2023-02-19T06:12:24;12;8;
60816;PMS5003;51921;51.518;-3.188;2023-02-19T06:14:50;8;6;
60816;PMS5003;51921;51.518;-3.188;2023-02-19T06:17:15;11;11;
60816;PMS5003;51921;51.518;-3.188;2023-02-19T06:19:40;7;6;
60816;PMS5003;51921;51.518;-3.188;2023-02-19T06:22:06;7;7;
60816;PMS5003;51921;51.518;-3.188;2023-02-19T06:24:31;8;7;
60816;PMS5003;51921;51.518;-3.188;2023-02-19T06:26:56;10;9;
60816;PMS5003;51921;51.518;-3.188;2023-02-19T06:29:22;10;7;
60816;PMS5003;51921;51.518;-3.188;2023-02-19T06:31:48;7;7;
60816;PMS5003;51921;51.518;-3.188;2023-02-19T06:34:13;11;10;
60816;PMS5003;51921;51.518;-3.188;2023-02-19T06:36:38;11;9;
60816;PMS5003;51921;51.518;-3.188;2023-02-19T06:39:04;9;8;
60816;PMS5003;51921;51.518;-3.188;2023-02-19T06:41:30;10;8;
60816;PMS5003;51921;51.518;-3.188;2023-02-19T06:44:01;12;9;
60816;PMS5003;51921;51.518;-3.188;2023-02-19T06:46:21;11;9;
60816;PMS5003;51921;51.518;-3.188;2023-02-19T06:48:46;15;11;
60816;PMS5003;51921;51.518;-3.188;2023-02-19T06:51:12;8;6;
60816;PMS5003;51921;51.518;-3.188;2023-02-19T06:53:37;10;8;
60816;PMS5003;51921;51.518;-3.188;2023-02-19T06:56:04;12;9;
60816;PMS5003;51921;51.518;-3.188;2023-02-19T06:58:28;13;10;
60816;PMS5003;51921;51.518;-3.188;2023-02-19T07:00:54;11;10;
60816;PMS5003;51921;51.518;-3.188;2023-02-19T07:03:19;10;9;
60816;PMS5003;51921;51.518;-3.188;2023-02-19T07:05:44;11;9;
60816;PMS5003;51921;51.518;-3.188;2023-02-19T07:08:10;10;8;
60816;PMS5003;51921;51.518;-3.188;2023-02-19T07:10:35;9;9;
60816;PMS5003;51921;51.518;-3.188;2023-02-19T07:13:01;11;10;
60816;PMS5003;51921;51.518;-3.188;2023-02-19T07:15:26;8;7;
60816;PMS5003;51921;51.518;-3.188;2023-02-19T07:17:52;11;11;
60816;PMS5003;51921;51.518;-3.188;2023-02-19T07:20:17;15;12;
60816;PMS5003;51921;51.518;-3.188;2023-02-19T07:22:42;11;11;
60816;PMS5003;51921;51.518;-3.188;2023-02-19T07:25:07;9;8;
60816;PMS5003;51921;51.518;-3.188;2023-02-19T07:27:33;15;11;
60816;PMS5003;51921;51.518;-3.188;2023-02-19T07:29:58;10;9;
60816;PMS5003;51921;51.518;-3.188;2023-02-19T07:32:24;10;9;
60816;PMS5003;51921;51.518;-3.188;2023-02-19T07:34:50;8;7;
60816;PMS5003;51921;51.518;-3.188;2023-02-19T07:37:15;9;8;
60816;PMS5003;51921;51.518;-3.188;2023-02-19T07:39:41;9;9;
60816;PMS5003;51921;51.518;-3.188;2023-02-19T07:42:06;7;7;
60816;PMS5003;51921;51.518;-3.188;2023-02-19T07:44:32;11;10;
60816;PMS5003;51921;51.518;-3.188;2023-02-19T07:46:57;9;7;
60816;PMS5003;51921;51.518;-3.188;2023-02-19T07:49:23;10;9;
60816;PMS5003;51921;51.518;-3.188;2023-02-19T07:51:48;10;9;
60816;PMS5003;51921;51.518;-3.188;2023-02-19T07:54:14;10;8;
60816;PMS5003;51921;51.518;-3.188;2023-02-19T07:56:39;10;9;
60816;PMS5003;51921;51.518;-3.188;2023-02-19T07:59:04;12;10;
60816;PMS5003;51921;51.518;-3.188;2023-02-19T08:01:30;14;11;
60816;PMS5003;51921;51.518;-3.188;2023-02-19T08:03:56;12;10;
60816;PMS5003;51921;51.518;-3.188;2023-02-19T08:06:20;15;13;
60816;PMS5003;51921;51.518;-3.188;2023-02-19T08:08:46;12;10;
60816;PMS5003;51921;51.518;-3.188;2023-02-19T08:11:12;14;13;
60816;PMS5003;51921;51.518;-3.188;2023-02-19T08:13:37;13;11;
60816;PMS5003;51921;51.518;-3.188;2023-02-19T08:16:09;20;15;
60816;PMS5003;51921;51.518;-3.188;2023-02-19T08:18:29;10;10;
60816;PMS5003;51921;51.518;-3.188;2023-02-19T08:20:54;16;15;
60816;PMS5003;51921;51.518;-3.188;2023-02-19T08:23:20;16;14;
60816;PMS5003;51921;51.518;-3.188;2023-02-19T08:25:46;17;16;
60816;PMS5003;51921;51.518;-3.188;2023-02-19T08:28:11;21;19;
60816;PMS5003;51921;51.518;-3.188;2023-02-19T08:30:37;15;15;
60816;PMS5003;51921;51.518;-3.188;2023-02-19T08:33:02;24;20;
60816;PMS5003;51921;51.518;-3.188;2023-02-19T08:35:28;24;22;
60816;PMS5003;51921;51.518;-3.188;2023-02-19T08:37:54;21;20;
60816;PMS5003;51921;51.518;-3.188;2023-02-19T08:40:18;22;22;
60816;PMS5003;51921;51.518;-3.188;2023-02-19T08:42:44;24;24;
60816;PMS5003;51921;51.518;-3.188;2023-02-19T08:47:36;21;21;
60816;PMS5003;51921;51.518;-3.188;2023-02-19T08:50:01;22;20;
60816;PMS5003;51921;51.518;-3.188;2023-02-19T08:52:26;23;22;
60816;PMS5003;51921;51.518;-3.188;2023-02-19T08:54:51;26;22;
60816;PMS5003;51921;51.518;-3.188;2023-02-19T08:57:16;19;17;
60816;PMS5003;51921;51.518;-3.188;2023-02-19T08:59:42;17;14;
60816;PMS5003;51921;51.518;-3.188;2023-02-19T09:02:08;17;12;
60816;PMS5003;51921;51.518;-3.188;2023-02-19T09:04:33;11;9;
60816;PMS5003;51921;51.518;-3.188;2023-02-19T09:06:59;12;11;
60816;PMS5003;51921;51.518;-3.188;2023-02-19T09:09:24;10;8;
60816;PMS5003;51921;51.518;-3.188;2023-02-19T09:11:49;14;13;
60816;PMS5003;51921;51.518;-3.188;2023-02-19T09:14:15;10;8;
60816;PMS5003;51921;51.518;-3.188;2023-02-19T09:16:40;8;7;
60816;PMS5003;51921;51.518;-3.188;2023-02-19T09:19:06;10;9;
60816;PMS5003;51921;51.518;-3.188;2023-02-19T09:21:32;10;9;
60816;PMS5003;51921;51.518;-3.188;2023-02-19T09:23:57;9;8;
60816;PMS5003;51921;51.518;-3.188;2023-02-19T09:26:23;6;5;
60816;PMS5003;51921;51.518;-3.188;2023-02-19T09:28:48;9;8;
60816;PMS5003;51921;51.518;-3.188;2023-02-19T09:31:14;7;6;
60816;PMS5003;51921;51.518;-3.188;2023-02-19T09:33:41;9;8;
60816;PMS5003;51921;51.518;-3.188;2023-02-19T09:36:05;14;14;
60816;PMS5003;51921;51.518;-3.188;2023-02-19T09:38:30;9;7;
60816;PMS5003;51921;51.518;-3.188;2023-02-19T09:40:56;5;5;
60816;PMS5003;51921;51.518;-3.188;2023-02-19T09:43:22;3;3;
60816;PMS5003;51921;51.518;-3.188;2023-02-19T09:45:47;7;7;
60816;PMS5003;51921;51.518;-3.188;2023-02-19T09:48:12;5;4;
60816;PMS5003;51921;51.518;-3.188;2023-02-19T09:50:39;4;4;
60816;PMS5003;51921;51.518;-3.188;2023-02-19T09:53:03;5;4;
60816;PMS5003;51921;51.518;-3.188;2023-02-19T09:55:30;4;4;
60816;PMS5003;51921;51.518;-3.188;2023-02-19T09:57:54;4;4;
60816;PMS5003;51921;51.518;-3.188;2023-02-19T10:00:20;5;4;
60816;PMS5003;51921;51.518;-3.188;2023-02-19T10:02:45;4;4;
60816;PMS5003;51921;51.518;-3.188;2023-02-19T10:05:11;5;5;
60816;PMS5003;51921;51.518;-3.188;2023-02-19T10:07:36;5;5;
60816;PMS5003;51921;51.518;-3.188;2023-02-19T10:10:04;3;3;
60816;PMS5003;51921;51.518;-3.188;2023-02-19T10:12:28;5;4;
60816;PMS5003;51921;51.518;-3.188;2023-02-19T10:14:54;6;6;
60816;PMS5003;51921;51.518;-3.188;2023-02-19T10:17:20;3;3;
60816;PMS5003;51921;51.518;-3.188;2023-02-19T10:19:43;4;3;
60816;PMS5003;51921;51.518;-3.188;2023-02-19T10:22:09;6;4;
60816;PMS5003;51921;51.518;-3.188;2023-02-19T10:24:35;4;4;
60816;PMS5003;51921;51.518;-3.188;2023-02-19T10:27:00;5;4;
60816;PMS5003;51921;51.518;-3.188;2023-02-19T10:29:26;5;3;
60816;PMS5003;51921;51.518;-3.188;2023-02-19T10:34:17;3;3;
60816;PMS5003;51921;51.518;-3.188;2023-02-19T10:36:42;3;2;
60816;PMS5003;51921;51.518;-3.188;2023-02-19T10:39:13;3;2;
60816;PMS5003;51921;51.518;-3.188;2023-02-19T10:41:33;3;2;
60816;PMS5003;51921;51.518;-3.188;2023-02-19T10:44:01;1;1;
60816;PMS5003;51921;51.518;-3.188;2023-02-19T10:46:24;2;2;
60816;PMS5003;51921;51.518;-3.188;2023-02-19T10:48:51;2;2;
60816;PMS5003;51921;51.518;-3.188;2023-02-19T10:51:15;1;1;
60816;PMS5003;51921;51.518;-3.188;2023-02-19T10:53:42;4;4;
60816;PMS5003;51921;51.518;-3.188;2023-02-19T10:56:07;2;2;
60816;PMS5003;51921;51.518;-3.188;2023-02-19T10:58:31;5;3;
60816;PMS5003;51921;51.518;-3.188;2023-02-19T11:03:22;3;3;
60816;PMS5003;51921;51.518;-3.188;2023-02-19T11:05:53;4;2;
60816;PMS5003;51921;51.518;-3.188;2023-02-19T11:08:18;3;2;
60816;PMS5003;51921;51.518;-3.188;2023-02-19T11:10:39;1;1;
60816;PMS5003;51921;51.518;-3.188;2023-02-19T11:13:05;6;6;
60816;PMS5003;51921;51.518;-3.188;2023-02-19T11:15:30;5;5;
60816;PMS5003;51921;51.518;-3.188;2023-02-19T11:17:57;5;3;
60816;PMS5003;51921;51.518;-3.188;2023-02-19T11:20:20;5;3;
60816;PMS5003;51921;51.518;-3.188;2023-02-19T11:22:46;3;2;
60816;PMS5003;51921;51.518;-3.188;2023-02-19T11:27:37;2;2;
60816;PMS5003;51921;51.518;-3.188;2023-02-19T11:32:28;1;1;
60816;PMS5003;51921;51.518;-3.188;2023-02-19T11:37:19;2;2;
60816;PMS5003;51921;51.518;-3.188;2023-02-19T11:39:45;1;1;
60816;PMS5003;51921;51.518;-3.188;2023-02-19T11:44:38;5;5;
60816;PMS5003;51921;51.518;-3.188;2023-02-19T11:47:04;1;0;
60816;PMS5003;51921;51.518;-3.188;2023-02-19T11:49:28;4;3;
60816;PMS5003;51921;51.518;-3.188;2023-02-19T11:51:56;1;1;
60816;PMS5003;51921;51.518;-3.188;2023-02-19T11:54:22;6;5;
60816;PMS5003;51921;51.518;-3.188;2023-02-19T11:56:42;7;6;
60816;PMS5003;51921;51.518;-3.188;2023-02-19T11:59:09;4;4;
60816;PMS5003;51921;51.518;-3.188;2023-02-19T12:04:03;2;2;
60816;PMS5003;51921;51.518;-3.188;2023-02-19T12:06:26;4;3;
60816;PMS5003;51921;51.518;-3.188;2023-02-19T12:11:20;9;7;
60816;PMS5003;51921;51.518;-3.188;2023-02-19T12:13:45;9;7;
60816;PMS5003;51921;51.518;-3.188;2023-02-19T12:16:10;5;5;
60816;PMS5003;51921;51.518;-3.188;2023-02-19T12:18:39;9;8;
60816;PMS5003;51921;51.518;-3.188;2023-02-19T12:21:00;9;8;
60816;PMS5003;51921;51.518;-3.188;2023-02-19T12:25:49;15;13;
60816;PMS5003;51921;51.518;-3.188;2023-02-19T12:28:17;12;12;
60816;PMS5003;51921;51.518;-3.188;2023-02-19T12:30:43;12;11;
60816;PMS5003;51921;51.518;-3.188;2023-02-19T12:33:08;10;9;
60816;PMS5003;51921;51.518;-3.188;2023-02-19T12:35:32;11;10;
60816;PMS5003;51921;51.518;-3.188;2023-02-19T12:37:57;10;10;
60816;PMS5003;51921;51.518;-3.188;2023-02-19T12:40:25;6;5;
60816;PMS5003;51921;51.518;-3.188;2023-02-19T12:42:49;4;4;
60816;PMS5003;51921;51.518;-3.188;2023-02-19T12:45:14;5;4;
60816;PMS5003;51921;51.518;-3.188;2023-02-19T12:47:37;3;3;
60816;PMS5003;51921;51.518;-3.188;2023-02-19T12:50:03;3;2;
60816;PMS5003;51921;51.518;-3.188;2023-02-19T12:52:29;3;3;
60816;PMS5003;51921;51.518;-3.188;2023-02-19T12:54:53;4;4;
60816;PMS5003;51921;51.518;-3.188;2023-02-19T12:57:19;3;3;
60816;PMS5003;51921;51.518;-3.188;2023-02-19T12:59:45;4;4;
60816;PMS5003;51921;51.518;-3.188;2023-02-19T13:02:11;5;3;
60816;PMS5003;51921;51.518;-3.188;2023-02-19T13:04:38;4;4;
60816;PMS5003;51921;51.518;-3.188;2023-02-19T13:07:01;2;2;
60816;PMS5003;51921;51.518;-3.188;2023-02-19T13:09:27;4;4;
60816;PMS5003;51921;51.518;-3.188;2023-02-19T13:11:52;6;5;
60816;PMS5003;51921;51.518;-3.188;2023-02-19T13:14:19;5;4;
60816;PMS5003;51921;51.518;-3.188;2023-02-19T13:16:43;3;3;
60816;PMS5003;51921;51.518;-3.188;2023-02-19T13:19:08;2;2;
60816;PMS5003;51921;51.518;-3.188;2023-02-19T13:21:34;2;2;
60816;PMS5003;51921;51.518;-3.188;2023-02-19T13:23:57;3;3;
60816;PMS5003;51921;51.518;-3.188;2023-02-19T13:26:29;2;2;
60816;PMS5003;51921;51.518;-3.188;2023-02-19T13:28:52;2;2;
60816;PMS5003;51921;51.518;-3.188;2023-02-19T13:31:19;4;4;
60816;PMS5003;51921;51.518;-3.188;2023-02-19T13:33:43;2;2;
60816;PMS5003;51921;51.518;-3.188;2023-02-19T13:36:08;1;1;
60816;PMS5003;51921;51.518;-3.188;2023-02-19T13:40:56;1;1;
60816;PMS5003;51921;51.518;-3.188;2023-02-19T13:43:22;2;1;
60816;PMS5003;51921;51.518;-3.188;2023-02-19T13:45:47;1;1;
60816;PMS5003;51921;51.518;-3.188;2023-02-19T13:48:13;2;2;
60816;PMS5003;51921;51.518;-3.188;2023-02-19T13:50:38;1;0;
60816;PMS5003;51921;51.518;-3.188;2023-02-19T13:53:06;1;1;
60816;PMS5003;51921;51.518;-3.188;2023-02-19T13:57:54;2;2;
60816;PMS5003;51921;51.518;-3.188;2023-02-19T14:02:45;3;2;
60816;PMS5003;51921;51.518;-3.188;2023-02-19T14:05:10;1;1;
60816;PMS5003;51921;51.518;-3.188;2023-02-19T14:10:02;1;1;
60816;PMS5003;51921;51.518;-3.188;2023-02-19T14:12:30;3;3;
60816;PMS5003;51921;51.518;-3.188;2023-02-19T14:14:54;1;1;
60816;PMS5003;51921;51.518;-3.188;2023-02-19T14:17:24;1;1;
60816;PMS5003;51921;51.518;-3.188;2023-02-19T14:19:48;3;2;
60816;PMS5003;51921;51.518;-3.188;2023-02-19T14:24:34;3;3;
60816;PMS5003;51921;51.518;-3.188;2023-02-19T14:27:00;1;0;
60816;PMS5003;51921;51.518;-3.188;2023-02-19T14:29:25;3;2;
60816;PMS5003;51921;51.518;-3.188;2023-02-19T14:31:51;2;2;
60816;PMS5003;51921;51.518;-3.188;2023-02-19T14:34:17;3;3;
60816;PMS5003;51921;51.518;-3.188;2023-02-19T14:36:42;2;2;
60816;PMS5003;51921;51.518;-3.188;2023-02-19T14:39:09;1;1;
60816;PMS5003;51921;51.518;-3.188;2023-02-19T14:41:36;2;2;
60816;PMS5003;51921;51.518;-3.188;2023-02-19T14:43:59;4;3;
60816;PMS5003;51921;51.518;-3.188;2023-02-19T14:46:26;3;3;
60816;PMS5003;51921;51.518;-3.188;2023-02-19T14:48:49;3;3;
60816;PMS5003;51921;51.518;-3.188;2023-02-19T14:51:18;3;3;
60816;PMS5003;51921;51.518;-3.188;2023-02-19T14:53:41;2;2;
60816;PMS5003;51921;51.518;-3.188;2023-02-19T14:56:06;2;2;
60816;PMS5003;51921;51.518;-3.188;2023-02-19T14:58:31;4;3;
60816;PMS5003;51921;51.518;-3.188;2023-02-19T15:00:57;3;3;
60816;PMS5003;51921;51.518;-3.188;2023-02-19T15:03:25;4;4;
60816;PMS5003;51921;51.518;-3.188;2023-02-19T15:05:52;3;3;
60816;PMS5003;51921;51.518;-3.188;2023-02-19T15:08:16;3;3;
60816;PMS5003;51921;51.518;-3.188;2023-02-19T15:10:40;2;2;
60816;PMS5003;51921;51.518;-3.188;2023-02-19T15:13:05;4;3;
60816;PMS5003;51921;51.518;-3.188;2023-02-19T15:15:31;4;4;
60816;PMS5003;51921;51.518;-3.188;2023-02-19T15:17:56;2;2;
60816;PMS5003;51921;51.518;-3.188;2023-02-19T15:20:21;3;3;
60816;PMS5003;51921;51.518;-3.188;2023-02-19T15:22:47;2;2;
60816;PMS5003;51921;51.518;-3.188;2023-02-19T15:25:14;2;2;
60816;PMS5003;51921;51.518;-3.188;2023-02-19T15:27:38;3;3;
60816;PMS5003;51921;51.518;-3.188;2023-02-19T15:32:29;1;1;
60816;PMS5003;51921;51.518;-3.188;2023-02-19T15:34:55;2;2;
60816;PMS5003;51921;51.518;-3.188;2023-02-19T15:37:20;2;2;
60816;PMS5003;51921;51.518;-3.188;2023-02-19T15:39:45;2;2;
60816;PMS5003;51921;51.518;-3.188;2023-02-19T15:42:14;3;3;
60816;PMS5003;51921;51.518;-3.188;2023-02-19T15:44:38;3;3;
60816;PMS5003;51921;51.518;-3.188;2023-02-19T15:47:04;2;2;
60816;PMS5003;51921;51.518;-3.188;2023-02-19T15:49:27;3;2;
60816;PMS5003;51921;51.518;-3.188;2023-02-19T15:51:55;2;2;
60816;PMS5003;51921;51.518;-3.188;2023-02-19T15:54:21;2;1;
60816;PMS5003;51921;51.518;-3.188;2023-02-19T15:56:44;4;3;
60816;PMS5003;51921;51.518;-3.188;2023-02-19T15:59:12;1;1;
60816;PMS5003;51921;51.518;-3.188;2023-02-19T16:01:35;2;1;
60816;PMS5003;51921;51.518;-3.188;2023-02-19T16:04:00;3;3;
60816;PMS5003;51921;51.518;-3.188;2023-02-19T16:06:26;5;5;
60816;PMS5003;51921;51.518;-3.188;2023-02-19T16:09:00;5;4;
60816;PMS5003;51921;51.518;-3.188;2023-02-19T16:11:25;5;5;
60816;PMS5003;51921;51.518;-3.188;2023-02-19T16:13:42;4;3;
60816;PMS5003;51921;51.518;-3.188;2023-02-19T16:16:12;6;5;
60816;PMS5003;51921;51.518;-3.188;2023-02-19T16:18:33;7;6;
60816;PMS5003;51921;51.518;-3.188;2023-02-19T16:20:58;5;5;
60816;PMS5003;51921;51.518;-3.188;2023-02-19T16:23:24;8;5;
60816;PMS5003;51921;51.518;-3.188;2023-02-19T16:28:17;3;3;
60816;PMS5003;51921;51.518;-3.188;2023-02-19T16:30:40;4;4;
60816;PMS5003;51921;51.518;-3.188;2023-02-19T16:35:34;4;3;
60816;PMS5003;51921;51.518;-3.188;2023-02-19T16:37:58;2;2;
60816;PMS5003;51921;51.518;-3.188;2023-02-19T16:45:14;2;2;
60816;PMS5003;51921;51.518;-3.188;2023-02-19T16:47:39;5;5;
60816;PMS5003;51921;51.518;-3.188;2023-02-19T16:50:09;3;2;
60816;PMS5003;51921;51.518;-3.188;2023-02-19T16:52:30;3;3;
60816;PMS5003;51921;51.518;-3.188;2023-02-19T16:54:56;2;2;
60816;PMS5003;51921;51.518;-3.188;2023-02-19T16:57:21;1;1;
60816;PMS5003;51921;51.518;-3.188;2023-02-19T16:59:47;1;1;
60816;PMS5003;51921;51.518;-3.188;2023-02-19T17:02:14;1;1;
60816;PMS5003;51921;51.518;-3.188;2023-02-19T17:04:38;2;1;
60816;PMS5003;51921;51.518;-3.188;2023-02-19T17:07:03;2;1;
60816;PMS5003;51921;51.518;-3.188;2023-02-19T17:09:29;1;1;